55FD weather

Dotson Airport
Baker, Florida, United States

Public forecast

Using degrees Fahrenheit for public forecast. Weather courtesy of forecast.io.

METAR (pilot weather report)

Closest report is Bob Sikes Airport, 8.9 nm (16.4 km) ESE. Retrieved 2018/07/15 20:53 UTC (2 hours ago):

KCEW 152053Z AUTO 09007KT 10SM TS SCT075 BKN110 28/24 A2999 RMK AO2 LTG DSNT ALQDS TSE1956B16E31B34 SLP151 T02830244 56013

TAF (pilot weather forecast)

Forecast is more than 12 hours old.

Closest forecast is Duke Field, 13.2 nm (24.5 km) SE. Retrieved 2018/07/14 09:08 UTC (2 days ago):

TAF KEGI 140900Z 1409/1515 34005KT 9999 FEW030 QNH3006INS BECMG 1418/1419 20010KT 9999 VCTS SCT040CB BKN300 QNH3002INS BECMG 1421/1422 23005KT 9999 NSW FEW035 SCT300 QNH3001INS TX35/1419Z TN22/1411Z LAST NO AMDS AFT 1409 NEXT 1413